createdAt,value
2022-09-06T00:01:24.869Z,67.47
2022-09-06T00:03:51.685Z,67.18
2022-09-06T00:06:20.364Z,69.86
2022-09-06T00:08:48.507Z,68.78
2022-09-06T00:11:16.383Z,68.77
2022-09-06T00:13:44.008Z,69.29
2022-09-06T00:16:14.193Z,67.91
2022-09-06T00:18:42.092Z,68.03
2022-09-06T00:21:21.594Z,68.29
2022-09-06T00:23:48.643Z,66.79
2022-09-06T00:26:15.842Z,67.50
2022-09-06T00:28:42.848Z,68.03
2022-09-06T00:31:18.105Z,67.67
2022-09-06T00:33:44.999Z,66.42
2022-09-06T00:36:13.264Z,66.70
2022-09-06T00:38:40.624Z,67.59
2022-09-06T00:41:09.069Z,68.15
2022-09-06T00:43:36.439Z,68.19
2022-09-06T00:46:04.794Z,67.56
2022-09-06T00:48:31.952Z,67.38
2022-09-06T00:51:02.291Z,67.75
2022-09-06T00:53:30.993Z,68.62
2022-09-06T00:55:58.704Z,68.02
2022-09-06T00:58:26.603Z,69.85
2022-09-06T01:00:53.573Z,68.63
2022-09-06T01:03:23.173Z,67.84
2022-09-06T01:06:17.534Z,68.97
2022-09-06T01:09:18.756Z,67.88
2022-09-06T01:11:55.686Z,67.94
2022-09-06T01:14:37.604Z,67.38
2022-09-06T01:17:13.047Z,67.76
2022-09-06T01:19:54.773Z,67.77
2022-09-06T01:22:33.594Z,67.79
2022-09-06T01:25:35.630Z,68.45
2022-09-06T01:28:08.459Z,69.20
2022-09-06T01:30:40.864Z,68.27
2022-09-06T01:33:17.023Z,67.72
2022-09-06T01:35:55.602Z,68.60
2022-09-06T01:38:22.683Z,69.31
2022-09-06T01:40:49.688Z,69.20
2022-09-06T01:43:31.032Z,68.89
2022-09-06T01:46:22.386Z,69.38
2022-09-06T01:49:14.493Z,70.30
2022-09-06T01:51:50.248Z,69.31
2022-09-06T01:54:43.106Z,68.78
2022-09-06T01:57:36.778Z,68.95
2022-09-06T02:00:09.860Z,70.98
2022-09-06T02:02:42.935Z,69.00
2022-09-06T02:05:18.856Z,70.58
2022-09-06T02:07:48.613Z,70.69
2022-09-06T02:10:23.676Z,69.92
2022-09-06T02:12:54.088Z,71.38
2022-09-06T02:15:24.391Z,71.19
2022-09-06T02:17:58.277Z,70.82
2022-09-06T02:20:29.211Z,70.11
2022-09-06T02:23:00.511Z,69.75
2022-09-06T02:25:42.665Z,69.72
2022-09-06T02:28:10.996Z,70.28
2022-09-06T02:30:45.225Z,71.86
2022-09-06T02:33:20.784Z,73.88
2022-09-06T02:35:51.637Z,74.00
2022-09-06T02:38:22.326Z,74.43
2022-09-06T02:40:52.498Z,74.26
2022-09-06T02:43:19.789Z,73.99
2022-09-06T02:45:46.699Z,75.49
2022-09-06T02:48:14.711Z,73.82
2022-09-06T02:50:41.549Z,75.14
2022-09-06T02:53:11.111Z,75.48
2022-09-06T02:55:38.584Z,74.16
2022-09-06T02:58:06.888Z,73.59
2022-09-06T03:00:34.267Z,72.78
2022-09-06T03:03:01.214Z,75.13
2022-09-06T03:05:28.521Z,76.02
2022-09-06T03:07:55.750Z,74.40
2022-09-06T03:10:23.271Z,74.57
2022-09-06T03:12:50.095Z,73.91
2022-09-06T03:15:17.320Z,72.69
2022-09-06T03:17:44.519Z,72.54
2022-09-06T03:20:12.649Z,72.99
2022-09-06T03:22:40.765Z,72.99
2022-09-06T03:25:09.040Z,74.07
2022-09-06T03:27:36.560Z,74.39
2022-09-06T03:30:04.734Z,74.77
2022-09-06T03:32:31.457Z,73.13
2022-09-06T03:34:58.307Z,73.66
2022-09-06T03:37:25.214Z,74.87
2022-09-06T03:39:52.113Z,74.26
2022-09-06T03:42:19.055Z,72.67
2022-09-06T03:44:46.043Z,72.66
2022-09-06T03:47:14.755Z,72.57
2022-09-06T03:49:45.517Z,73.66
2022-09-06T03:52:12.461Z,73.47
2022-09-06T03:54:39.389Z,72.82
2022-09-06T03:57:07.145Z,73.28
2022-09-06T03:59:34.070Z,72.79
2022-09-06T04:02:00.919Z,73.10
2022-09-06T04:04:28.162Z,74.29
2022-09-06T04:06:55.072Z,74.06
2022-09-06T04:09:21.957Z,73.25
2022-09-06T04:11:48.842Z,73.65
2022-09-06T04:14:15.653Z,73.99
2022-09-06T04:16:42.571Z,74.14
2022-09-06T04:19:09.497Z,74.12
2022-09-06T04:21:36.531Z,73.90
2022-09-06T04:24:03.386Z,74.59
2022-09-06T04:26:30.651Z,73.91
2022-09-06T04:28:57.533Z,75.13
2022-09-06T04:31:24.393Z,74.41
2022-09-06T04:33:51.315Z,73.59
2022-09-06T04:36:18.175Z,74.61
2022-09-06T04:38:45.510Z,74.96
2022-09-06T04:41:15.848Z,73.72
2022-09-06T04:43:43.305Z,74.22
2022-09-06T04:46:25.497Z,73.98
2022-09-06T04:48:54.243Z,73.74
2022-09-06T04:51:21.697Z,74.79
2022-09-06T04:53:48.639Z,75.23
2022-09-06T04:56:18.608Z,74.88
2022-09-06T04:58:46.835Z,75.77
2022-09-06T05:01:14.011Z,74.28
2022-09-06T05:03:40.735Z,74.25
2022-09-06T05:06:22.418Z,74.34
2022-09-06T05:08:50.237Z,74.60
2022-09-06T05:11:17.183Z,73.91
2022-09-06T05:13:46.994Z,74.25
2022-09-06T05:16:14.348Z,74.03
2022-09-06T05:18:41.181Z,75.19
2022-09-06T05:21:08.301Z,73.80
2022-09-06T05:23:35.352Z,73.46
2022-09-06T05:26:02.695Z,73.33
2022-09-06T05:28:29.819Z,73.75
2022-09-06T05:31:13.360Z,73.63
2022-09-06T05:33:40.204Z,74.28
2022-09-06T05:36:07.705Z,74.73
2022-09-06T05:38:34.491Z,74.34
2022-09-06T05:41:01.381Z,74.28
2022-09-06T05:43:28.232Z,74.58
2022-09-06T05:45:55.331Z,73.42
2022-09-06T05:48:22.329Z,74.17
2022-09-06T05:51:01.303Z,73.97
2022-09-06T05:53:43.872Z,73.94
2022-09-06T05:56:12.956Z,73.37
2022-09-06T05:58:40.572Z,73.12
2022-09-06T06:01:28.972Z,73.53
2022-09-06T06:04:01.245Z,74.27
2022-09-06T06:06:30.805Z,73.88
2022-09-06T06:08:58.208Z,74.32
2022-09-06T06:11:26.250Z,73.31
2022-09-06T06:13:54.153Z,74.62
2022-09-06T06:16:23.151Z,75.04
2022-09-06T06:18:52.201Z,73.21
2022-09-06T06:21:25.797Z,71.35
2022-09-06T06:23:58.327Z,71.81
2022-09-06T06:26:26.301Z,71.89
2022-09-06T06:28:53.795Z,71.35
2022-09-06T06:31:24.115Z,72.17
2022-09-06T06:33:51.377Z,72.20
2022-09-06T06:36:24.586Z,72.36
2022-09-06T06:38:54.480Z,71.88
2022-09-06T06:41:24.197Z,71.78
2022-09-06T06:43:56.408Z,73.28
2022-09-06T06:46:28.648Z,71.79
2022-09-06T06:48:55.972Z,72.89
2022-09-06T06:51:27.040Z,74.70
2022-09-06T06:53:54.602Z,73.37
2022-09-06T06:56:27.526Z,73.45
2022-09-06T06:58:57.855Z,71.66
2022-09-06T07:01:26.638Z,73.68
2022-09-06T07:03:54.729Z,73.94
2022-09-06T07:09:09.390Z,73.07
2022-09-06T07:11:36.235Z,72.00
2022-09-06T07:14:03.233Z,72.75
2022-09-06T07:16:30.580Z,74.50
2022-09-06T07:18:57.693Z,72.92
2022-09-06T07:24:08.589Z,72.92
2022-09-06T07:26:39.713Z,72.38
2022-09-06T07:29:07.962Z,73.31
2022-09-06T07:34:23.410Z,72.18
2022-09-06T07:36:56.453Z,71.18
2022-09-06T07:39:23.588Z,70.19
2022-09-06T07:41:50.534Z,70.64
2022-09-06T07:44:17.350Z,70.68
2022-09-06T07:46:44.419Z,69.34
2022-09-06T07:49:11.529Z,69.13
2022-09-06T07:51:38.673Z,69.66
2022-09-06T07:54:28.844Z,68.78
2022-09-06T07:56:53.984Z,68.29
2022-09-06T07:59:21.069Z,67.73
2022-09-06T08:01:48.545Z,67.64
2022-09-06T08:04:16.598Z,67.75
2022-09-06T08:09:33.944Z,66.92
2022-09-06T08:12:06.884Z,66.70
2022-09-06T08:14:34.653Z,67.24
2022-09-06T08:17:02.359Z,66.48
2022-09-06T08:19:29.190Z,65.58
2022-09-06T08:21:56.359Z,65.79
2022-09-06T08:24:23.302Z,64.85
2022-09-06T08:26:51.585Z,64.51
2022-09-06T08:29:20.149Z,64.13
2022-09-06T08:31:47.658Z,63.39
2022-09-06T08:34:15.424Z,63.59
2022-09-06T08:36:42.840Z,63.24
2022-09-06T08:39:10.571Z,63.06
2022-09-06T08:42:08.130Z,62.67
2022-09-06T08:47:21.993Z,61.82
2022-09-06T08:50:10.234Z,61.15
2022-09-06T08:53:06.229Z,60.86
2022-09-06T08:55:39.915Z,60.59
2022-09-06T08:58:35.288Z,60.67
2022-09-06T09:01:14.120Z,59.36
2022-09-06T09:03:43.962Z,60.00
2022-09-06T09:06:11.685Z,60.18
2022-09-06T09:08:59.447Z,59.18
2022-09-06T09:11:26.510Z,57.56
2022-09-06T09:13:59.616Z,58.67
2022-09-06T09:16:27.222Z,58.62
2022-09-06T09:18:59.535Z,58.41
2022-09-06T09:21:30.710Z,57.66
2022-09-06T09:24:07.042Z,56.66
2022-09-06T09:27:15.114Z,57.01
2022-09-06T09:32:44.970Z,56.75
2022-09-06T09:35:33.189Z,56.40
2022-09-06T09:38:08.075Z,56.32
2022-09-06T09:40:50.065Z,56.18
2022-09-06T09:43:26.743Z,55.19
2022-09-06T09:46:12.470Z,56.38
2022-09-06T09:48:41.464Z,54.35
2022-09-06T09:51:27.424Z,54.58
2022-09-06T09:54:04.180Z,54.00
2022-09-06T09:56:53.128Z,54.68
2022-09-06T09:59:30.230Z,55.13
2022-09-06T10:02:04.040Z,53.09
2022-09-06T10:04:43.266Z,54.47
2022-09-06T10:07:20.006Z,53.45
2022-09-06T10:09:49.621Z,53.91
2022-09-06T10:12:19.580Z,53.14
2022-09-06T10:14:50.216Z,54.26
2022-09-06T10:17:36.101Z,53.83
2022-09-06T10:20:08.728Z,53.10
2022-09-06T10:22:44.228Z,52.37
2022-09-06T10:25:26.734Z,52.59
2022-09-06T10:28:18.721Z,53.98
2022-09-06T10:31:14.855Z,53.61
2022-09-06T10:33:57.167Z,52.13
2022-09-06T10:36:34.714Z,52.83
2022-09-06T10:39:24.720Z,51.02
2022-09-06T10:42:13.958Z,51.09
2022-09-06T10:44:43.614Z,52.63
2022-09-06T10:47:18.303Z,51.50
2022-09-06T10:49:53.174Z,52.25
2022-09-06T10:52:33.281Z,52.15
2022-09-06T10:55:05.085Z,50.84
2022-09-06T11:00:42.088Z,51.17
2022-09-06T11:06:13.719Z,51.24
2022-09-06T11:08:58.348Z,50.36
2022-09-06T11:11:38.902Z,50.56
2022-09-06T11:14:11.875Z,49.93
2022-09-06T11:16:52.107Z,49.70
2022-09-06T11:19:27.892Z,50.21
2022-09-06T11:21:59.407Z,50.45
2022-09-06T11:24:29.211Z,50.76
2022-09-06T11:27:07.923Z,50.69
2022-09-06T11:29:35.871Z,50.02
2022-09-06T11:32:24.460Z,49.02
2022-09-06T11:34:55.233Z,49.03
2022-09-06T11:37:31.211Z,49.54
2022-09-06T11:40:28.712Z,50.45
2022-09-06T11:42:58.891Z,49.60
2022-09-06T11:45:49.093Z,49.24
2022-09-06T11:48:24.828Z,47.71
2022-09-06T11:50:54.433Z,47.24
2022-09-06T11:53:23.624Z,45.81
2022-09-06T11:56:02.670Z,47.80
2022-09-06T11:58:41.792Z,47.28
2022-09-06T12:01:19.119Z,49.05
2022-09-06T12:04:06.042Z,47.68
2022-09-06T12:06:38.117Z,47.42
2022-09-06T12:09:35.739Z,48.02
2022-09-06T12:12:03.562Z,47.67
2022-09-06T12:14:46.988Z,47.87
2022-09-06T12:17:14.187Z,48.57
2022-09-06T12:19:44.611Z,47.34
2022-09-06T12:22:26.873Z,47.40
2022-09-06T12:24:55.985Z,47.70
2022-09-06T12:27:35.416Z,46.38
2022-09-06T12:30:09.564Z,47.69
2022-09-06T12:32:52.133Z,47.24
2022-09-06T12:38:17.321Z,46.89
2022-09-06T12:40:51.800Z,45.35
2022-09-06T12:43:20.054Z,47.26
2022-09-06T12:45:52.533Z,46.86
2022-09-06T12:48:31.024Z,46.76
2022-09-06T12:51:21.802Z,46.66
2022-09-06T12:53:58.946Z,43.81
2022-09-06T12:56:28.042Z,46.50
2022-09-06T12:59:14.318Z,47.18
2022-09-06T13:01:51.278Z,44.91
2022-09-06T13:04:31.013Z,44.94
2022-09-06T13:07:00.101Z,45.41
2022-09-06T13:09:30.138Z,47.26
2022-09-06T13:12:04.962Z,47.50
2022-09-06T13:14:33.745Z,47.23
2022-09-06T13:17:01.492Z,48.04
2022-09-06T13:19:34.385Z,49.47
2022-09-06T13:22:04.051Z,48.05
2022-09-06T13:24:33.868Z,45.81
2022-09-06T13:27:01.483Z,44.79
2022-09-06T13:29:33.441Z,45.48
2022-09-06T13:32:03.728Z,42.40
2022-09-06T13:34:33.280Z,46.03
2022-09-06T13:37:10.416Z,46.11
2022-09-06T13:39:44.328Z,45.54
2022-09-06T13:42:24.068Z,47.44
2022-09-06T13:44:53.771Z,45.99
2022-09-06T13:47:20.688Z,46.30
2022-09-06T13:49:47.669Z,46.01
2022-09-06T13:52:15.318Z,47.17
2022-09-06T13:54:42.331Z,47.63
2022-09-06T13:57:10.180Z,44.77
2022-09-06T13:59:37.201Z,45.29
2022-09-06T14:02:08.167Z,45.89
2022-09-06T14:04:35.994Z,46.88
2022-09-06T14:07:04.188Z,42.93
2022-09-06T14:09:31.600Z,41.93
2022-09-06T14:11:58.789Z,43.47
2022-09-06T14:14:25.996Z,42.12
2022-09-06T14:16:54.284Z,46.48
2022-09-06T14:19:21.418Z,46.93
2022-09-06T14:21:48.484Z,47.88
2022-09-06T14:24:15.611Z,47.34
2022-09-06T14:26:42.717Z,48.16
2022-09-06T14:29:09.813Z,48.20
2022-09-06T14:31:36.919Z,46.01
2022-09-06T14:34:04.306Z,47.36
2022-09-06T14:36:32.811Z,44.77
2022-09-06T14:39:01.079Z,48.73
2022-09-06T14:41:28.777Z,42.18
2022-09-06T14:43:57.636Z,46.40
2022-09-06T14:46:26.309Z,46.93
2022-09-06T14:49:04.226Z,44.25
2022-09-06T14:51:31.908Z,42.32
2022-09-06T14:54:08.511Z,43.05
2022-09-06T14:56:35.816Z,43.37
2022-09-06T14:59:03.339Z,44.05
2022-09-06T15:01:37.733Z,44.83
2022-09-06T15:04:07.354Z,47.53
2022-09-06T15:06:37.140Z,47.29
2022-09-06T15:09:05.907Z,44.04
2022-09-06T15:11:39.662Z,48.28
2022-09-06T15:14:27.293Z,48.70
2022-09-06T15:17:00.206Z,47.21
2022-09-06T15:19:29.602Z,49.96
2022-09-06T15:21:57.553Z,48.21
2022-09-06T15:24:25.377Z,50.55
2022-09-06T15:26:52.433Z,49.82
2022-09-06T15:29:20.531Z,47.20
2022-09-06T15:31:50.769Z,49.18
2022-09-06T15:34:20.018Z,47.92
2022-09-06T15:36:47.636Z,50.09
2022-09-06T15:39:14.665Z,48.73
2022-09-06T15:41:42.007Z,49.44
2022-09-06T15:44:14.658Z,49.88
2022-09-06T15:46:44.062Z,48.11
2022-09-06T15:49:14.717Z,47.25
2022-09-06T15:51:43.021Z,45.78
2022-09-06T15:54:12.327Z,49.02
2022-09-06T15:56:39.319Z,47.42
2022-09-06T15:59:07.244Z,46.93
2022-09-06T16:01:35.291Z,49.33
2022-09-06T16:04:06.868Z,50.11
2022-09-06T16:06:38.010Z,48.48
2022-09-06T16:09:08.201Z,47.95
2022-09-06T16:11:37.090Z,49.86
2022-09-06T16:14:05.677Z,52.15
2022-09-06T16:16:33.416Z,51.83
2022-09-06T16:19:00.874Z,51.28
2022-09-06T16:21:32.258Z,50.44
2022-09-06T16:24:05.575Z,52.36
2022-09-06T16:26:35.736Z,51.27
2022-09-06T16:29:04.121Z,52.08
2022-09-06T16:31:31.414Z,51.46
2022-09-06T16:33:58.194Z,52.43
2022-09-06T16:36:26.393Z,52.18
2022-09-06T16:38:53.329Z,52.80
2022-09-06T16:41:27.831Z,53.11
2022-09-06T16:43:55.418Z,53.11
2022-09-06T16:46:25.050Z,53.29
2022-09-06T16:48:57.196Z,53.40
2022-09-06T16:51:26.759Z,53.42
2022-09-06T16:53:54.705Z,53.13
2022-09-06T16:56:24.411Z,53.76
2022-09-06T16:58:58.813Z,52.72
2022-09-06T17:01:27.232Z,53.99
2022-09-06T17:03:54.755Z,54.25
2022-09-06T17:06:23.114Z,53.47
2022-09-06T17:08:51.273Z,54.30
2022-09-06T17:11:23.560Z,53.97
2022-09-06T17:13:52.459Z,53.89
2022-09-06T17:16:38.899Z,53.97
2022-09-06T17:19:07.243Z,54.92
2022-09-06T17:21:34.649Z,54.05
2022-09-06T17:24:04.800Z,53.92
2022-09-06T17:26:34.091Z,54.57
2022-09-06T17:29:01.963Z,53.83
2022-09-06T17:31:29.038Z,55.27
2022-09-06T17:33:56.212Z,53.05
2022-09-06T17:36:30.622Z,54.97
2022-09-06T17:39:08.415Z,54.42
2022-09-06T17:41:41.154Z,54.98
2022-09-06T17:44:13.314Z,55.70
2022-09-06T17:46:52.039Z,55.61
2022-09-06T17:49:28.422Z,55.65
2022-09-06T17:51:55.429Z,56.08
2022-09-06T17:54:22.395Z,55.45
2022-09-06T17:56:49.172Z,55.78
2022-09-06T17:59:16.084Z,56.09
2022-09-06T18:01:45.616Z,56.15
2022-09-06T18:04:13.595Z,56.33
2022-09-06T18:06:42.460Z,56.32
2022-09-06T18:09:15.547Z,56.77
2022-09-06T18:11:45.738Z,57.08
2022-09-06T18:14:17.734Z,56.98
2022-09-06T18:16:47.337Z,57.64
2022-09-06T18:19:15.473Z,57.78
2022-09-06T18:21:42.845Z,57.91
2022-09-06T18:24:10.946Z,57.98
2022-09-06T18:26:37.848Z,57.93
2022-09-06T18:29:07.234Z,57.82
2022-09-06T18:31:34.324Z,57.96
2022-09-06T18:34:01.229Z,58.63
2022-09-06T18:36:32.060Z,57.67
2022-09-06T18:39:04.819Z,58.43
2022-09-06T18:41:51.111Z,58.26
2022-09-06T18:44:18.199Z,58.34
2022-09-06T18:46:45.068Z,59.30
2022-09-06T18:49:14.369Z,58.99
2022-09-06T18:51:41.496Z,58.85
2022-09-06T18:54:09.955Z,59.16
2022-09-06T18:56:36.835Z,59.01
2022-09-06T18:59:05.417Z,59.07
2022-09-06T19:01:33.413Z,58.01
2022-09-06T19:04:01.108Z,59.14
2022-09-06T19:06:29.873Z,58.60
2022-09-06T19:09:01.418Z,59.03
2022-09-06T19:11:28.866Z,58.19
2022-09-06T19:13:57.348Z,58.76
2022-09-06T19:16:26.795Z,58.14
2022-09-06T19:18:56.325Z,57.86
2022-09-06T19:21:27.954Z,58.39
2022-09-06T19:24:08.844Z,59.46
2022-09-06T19:26:38.583Z,59.50
2022-09-06T19:29:09.166Z,59.13
2022-09-06T19:31:38.306Z,59.04
2022-09-06T19:34:05.997Z,59.37
2022-09-06T19:36:33.253Z,59.19
2022-09-06T19:39:04.557Z,58.94
2022-09-06T19:41:34.091Z,58.79
2022-09-06T19:44:01.765Z,59.77
2022-09-06T19:46:28.846Z,59.68
2022-09-06T19:48:56.438Z,59.58
2022-09-06T19:51:24.376Z,60.06
2022-09-06T19:53:53.551Z,59.75
2022-09-06T19:56:31.799Z,60.15
2022-09-06T19:59:00.929Z,59.94
2022-09-06T20:01:31.173Z,60.24
2022-09-06T20:04:00.151Z,60.05
2022-09-06T20:06:27.752Z,59.91
2022-09-06T20:08:58.132Z,60.48
2022-09-06T20:11:27.518Z,60.95
2022-09-06T20:13:54.541Z,60.33
2022-09-06T20:16:24.912Z,59.56
2022-09-06T20:18:52.618Z,60.43
2022-09-06T20:21:21.171Z,60.75
2022-09-06T20:23:53.040Z,60.94
2022-09-06T20:26:20.889Z,62.22
2022-09-06T20:28:47.887Z,61.14
2022-09-06T20:31:18.717Z,61.94
2022-09-06T20:33:49.333Z,63.44
2022-09-06T20:36:17.483Z,62.07
2022-09-06T20:38:45.918Z,62.12
2022-09-06T20:41:17.989Z,63.11
2022-09-06T20:43:46.795Z,61.54
2022-09-06T20:46:17.284Z,61.85
2022-09-06T20:48:45.638Z,62.48
2022-09-06T20:51:19.339Z,62.49
2022-09-06T20:53:48.648Z,62.39
2022-09-06T20:56:21.620Z,62.69
2022-09-06T20:59:00.952Z,62.98
2022-09-06T21:01:33.767Z,63.37
2022-09-06T21:04:02.174Z,63.80
2022-09-06T21:06:33.920Z,64.08
2022-09-06T21:09:00.759Z,63.72
2022-09-06T21:11:28.056Z,63.65
2022-09-06T21:13:56.720Z,63.80
2022-09-06T21:16:26.003Z,65.27
2022-09-06T21:18:54.910Z,64.29
2022-09-06T21:21:22.597Z,63.67
2022-09-06T21:23:49.820Z,63.75
2022-09-06T21:26:17.447Z,63.68
2022-09-06T21:28:45.859Z,64.82
2022-09-06T21:31:32.443Z,63.73
2022-09-06T21:34:05.132Z,63.88
2022-09-06T21:36:35.926Z,63.22
2022-09-06T21:39:09.705Z,63.23
2022-09-06T21:41:41.082Z,65.10
2022-09-06T21:44:08.914Z,64.39
2022-09-06T21:46:37.727Z,64.03
2022-09-06T21:49:07.574Z,64.62
2022-09-06T21:51:35.309Z,64.21
2022-09-06T21:54:06.011Z,65.23
2022-09-06T21:56:34.482Z,63.12
2022-09-06T21:59:01.686Z,62.72
2022-09-06T22:01:32.098Z,63.31
2022-09-06T22:04:00.251Z,63.70
2022-09-06T22:06:29.292Z,63.02
2022-09-06T22:09:00.627Z,62.67
2022-09-06T22:11:30.183Z,62.64
2022-09-06T22:14:06.704Z,62.64
2022-09-06T22:16:37.437Z,62.46
2022-09-06T22:19:05.941Z,62.73
2022-09-06T22:21:33.441Z,63.59
2022-09-06T22:24:03.338Z,63.41
2022-09-06T22:26:33.117Z,63.71
2022-09-06T22:29:02.489Z,63.95
2022-09-06T22:31:30.930Z,64.29
2022-09-06T22:33:59.002Z,66.26
2022-09-06T22:36:26.691Z,67.74
2022-09-06T22:38:57.743Z,70.22
2022-09-06T22:41:30.100Z,71.61
2022-09-06T22:43:59.643Z,71.55
2022-09-06T22:46:26.566Z,74.27
2022-09-06T22:48:53.435Z,75.23
2022-09-06T22:51:20.511Z,76.36
2022-09-06T22:53:47.357Z,76.97
2022-09-06T22:56:14.154Z,78.51
2022-09-06T22:58:41.048Z,78.76
2022-09-06T23:01:10.059Z,80.73
2022-09-06T23:03:37.949Z,82.38
2022-09-06T23:06:05.482Z,83.56
2022-09-06T23:08:35.048Z,84.25
2022-09-06T23:11:07.438Z,85.16
2022-09-06T23:13:34.719Z,85.64
2022-09-06T23:16:09.699Z,85.81
2022-09-06T23:18:36.803Z,86.15
2022-09-06T23:21:15.104Z,86.66
2022-09-06T23:23:42.211Z,86.97
2022-09-06T23:26:13.039Z,87.69
2022-09-06T23:28:40.009Z,87.77
2022-09-06T23:31:09.108Z,87.63
2022-09-06T23:33:37.462Z,88.01
2022-09-06T23:36:12.438Z,88.41
2022-09-06T23:38:41.067Z,88.78
2022-09-06T23:41:09.982Z,88.84
2022-09-06T23:43:37.900Z,89.25
2022-09-06T23:46:05.305Z,89.44
2022-09-06T23:48:32.417Z,89.62
2022-09-06T23:50:59.438Z,89.54
2022-09-06T23:53:26.767Z,89.87
2022-09-06T23:55:53.610Z,89.99
2022-09-06T23:58:20.593Z,90.21
